createdAt,value
2017-01-22T00:00:25.586Z,-1.09
2017-01-22T00:01:35.891Z,-1.18
2017-01-22T00:02:46.170Z,-1.23
2017-01-22T00:03:56.071Z,-1.16
2017-01-22T00:05:06.351Z,-1.26
2017-01-22T00:06:16.657Z,-1.26
2017-01-22T00:07:27.059Z,-1.28
2017-01-22T00:08:36.942Z,-1.28
2017-01-22T00:09:46.908Z,-1.26
2017-01-22T00:10:56.402Z,-1.39
2017-01-22T00:12:06.714Z,-1.44
2017-01-22T00:13:17.079Z,-1.42
2017-01-22T00:14:26.970Z,-1.42
2017-01-22T00:15:37.248Z,-1.46
2017-01-22T00:16:47.511Z,-1.46
2017-01-22T00:17:57.780Z,-1.44
2017-01-22T00:19:08.086Z,-1.44
2017-01-22T00:20:18.363Z,-1.43
2017-01-22T00:21:28.233Z,-1.39
2017-01-22T00:22:38.088Z,-1.35
2017-01-22T00:23:48.360Z,-1.5
2017-01-22T00:24:58.619Z,-1.44
2017-01-22T00:26:08.542Z,-1.49
2017-01-22T00:27:18.825Z,-1.44
2017-01-22T00:28:29.132Z,-1.47
2017-01-22T00:29:39.484Z,-1.4
2017-01-22T00:30:49.753Z,-1.49
2017-01-22T00:31:59.803Z,-1.52
2017-01-22T00:33:09.296Z,-1.5
2017-01-22T00:34:19.630Z,-1.43
2017-01-22T00:35:29.902Z,-1.49
2017-01-22T00:36:40.259Z,-1.52
2017-01-22T00:37:50.506Z,-1.52
2017-01-22T00:39:00.388Z,-1.52
2017-01-22T00:40:10.263Z,-1.42
2017-01-22T00:41:20.570Z,-1.52
2017-01-22T00:42:30.867Z,-1.49
2017-01-22T00:43:40.730Z,-1.49
2017-01-22T00:44:51.040Z,-1.46
2017-01-22T00:46:00.912Z,-1.49
2017-01-22T00:47:10.759Z,-1.42
2017-01-22T00:48:20.685Z,-1.46
2017-01-22T00:49:30.148Z,-1.46
2017-01-22T00:50:40.442Z,-1.52
2017-01-22T00:51:50.741Z,-1.49
2017-01-22T00:53:01.023Z,-1.53
2017-01-22T00:54:11.324Z,-1.4
2017-01-22T00:55:21.416Z,-1.52
2017-01-22T00:56:31.701Z,-1.5
2017-01-22T00:57:41.967Z,-1.62
2017-01-22T00:58:51.971Z,-1.53
2017-01-22T01:00:01.821Z,-1.52
2017-01-22T01:01:12.119Z,-1.54
2017-01-22T01:02:22.420Z,-1.58
2017-01-22T01:03:32.698Z,-1.52
2017-01-22T01:04:42.959Z,-1.44
2017-01-22T01:05:53.283Z,-1.35
2017-01-22T01:07:03.562Z,-1.46
2017-01-22T01:08:13.833Z,-1.46
2017-01-22T01:09:24.119Z,-1.44
2017-01-22T01:10:33.587Z,-1.44
2017-01-22T01:11:43.850Z,-1.44
2017-01-22T01:12:54.162Z,-1.44
2017-01-22T01:14:04.499Z,-1.44
2017-01-22T01:15:14.771Z,-1.36
2017-01-22T01:16:25.122Z,-1.39
2017-01-22T01:17:35.413Z,-1.44
2017-01-22T01:18:45.732Z,-1.46
2017-01-22T01:19:56.031Z,-1.49
2017-01-22T01:21:06.308Z,-1.44
2017-01-22T01:22:16.563Z,-1.49
2017-01-22T01:23:26.463Z,-1.5
2017-01-22T01:24:36.344Z,-1.46
2017-01-22T01:25:46.671Z,-1.5
2017-01-22T01:26:56.958Z,-1.44
2017-01-22T01:28:06.879Z,-1.6
2017-01-22T01:29:16.722Z,-1.57
2017-01-22T01:30:27.002Z,-1.54
2017-01-22T01:31:37.362Z,-1.57
2017-01-22T01:32:47.671Z,-1.62
2017-01-22T01:33:57.931Z,-1.6
2017-01-22T01:35:08.180Z,-1.53
2017-01-22T01:36:18.440Z,-1.54
2017-01-22T01:37:28.731Z,-1.53
2017-01-22T01:38:38.978Z,-1.49
2017-01-22T01:39:48.817Z,-1.5
2017-01-22T01:40:59.137Z,-1.44
2017-01-22T01:42:09.582Z,-1.43
2017-01-22T01:43:19.922Z,-1.47
2017-01-22T01:44:29.779Z,-1.5
2017-01-22T01:45:40.029Z,-1.62
2017-01-22T01:46:50.383Z,-1.58
2017-01-22T01:48:00.703Z,-1.61
2017-01-22T01:49:10.633Z,-1.62
2017-01-22T01:50:20.908Z,-1.61
2017-01-22T01:51:30.766Z,-1.64
2017-01-22T01:52:41.043Z,-1.57
2017-01-22T01:53:50.503Z,-1.49
2017-01-22T01:55:00.754Z,-1.46
2017-01-22T01:56:11.000Z,-1.5
2017-01-22T01:57:21.284Z,-1.47
2017-01-22T01:58:31.131Z,-1.52
2017-01-22T01:59:41.387Z,-1.46
2017-01-22T02:00:51.372Z,-1.61
2017-01-22T02:02:01.249Z,-1.57
2017-01-22T02:03:11.141Z,-1.71
2017-01-22T02:04:21.000Z,-1.75
2017-01-22T02:05:31.313Z,-1.65
2017-01-22T02:06:41.150Z,-1.64
2017-01-22T02:07:51.438Z,-1.7
2017-01-22T02:09:01.718Z,-1.7
2017-01-22T02:10:11.655Z,-1.7
2017-01-22T02:11:21.920Z,-1.68
2017-01-22T02:12:32.221Z,-1.71
2017-01-22T02:13:42.508Z,-1.71
2017-01-22T02:14:52.826Z,-1.71
2017-01-22T02:16:03.107Z,-1.78
2017-01-22T02:17:13.368Z,-1.79
2017-01-22T02:18:23.208Z,-1.86
2017-01-22T02:19:33.048Z,-1.88
2017-01-22T02:20:43.293Z,-1.92
2017-01-22T02:21:52.894Z,-1.89
2017-01-22T02:23:02.798Z,-1.85
2017-01-22T02:24:12.654Z,-1.88
2017-01-22T02:25:22.895Z,-1.88
2017-01-22T02:26:32.790Z,-1.82
2017-01-22T02:27:43.073Z,-1.79
2017-01-22T02:28:52.961Z,-1.83
2017-01-22T02:30:03.224Z,-1.78
2017-01-22T02:31:13.064Z,-1.82
2017-01-22T02:32:23.412Z,-1.78
2017-01-22T02:33:33.280Z,-1.85
2017-01-22T02:34:43.537Z,-1.85
2017-01-22T02:35:53.907Z,-1.86
2017-01-22T02:37:03.753Z,-1.82
2017-01-22T02:38:14.139Z,-1.79
2017-01-22T02:39:24.392Z,-1.86
2017-01-22T02:40:34.658Z,-1.86
2017-01-22T02:41:44.891Z,-1.89
2017-01-22T02:42:55.137Z,-1.88
2017-01-22T02:44:05.436Z,-1.9
2017-01-22T02:45:15.702Z,-1.88
2017-01-22T02:46:25.943Z,-1.94
2017-01-22T02:47:36.237Z,-1.97
2017-01-22T02:48:46.075Z,-1.9
2017-01-22T02:49:55.960Z,-1.96
2017-01-22T02:51:06.419Z,-1.92
2017-01-22T02:52:16.748Z,-1.96
2017-01-22T02:53:26.608Z,-1.9
2017-01-22T02:54:36.853Z,-1.94
2017-01-22T02:55:47.092Z,-1.97
2017-01-22T02:56:57.347Z,-1.94
2017-01-22T02:58:07.632Z,-1.96
2017-01-22T02:59:17.886Z,-1.89
2017-01-22T03:00:28.143Z,-1.89
2017-01-22T03:01:38.375Z,-1.97
2017-01-22T03:02:48.732Z,-1.89
2017-01-22T03:03:58.570Z,-1.97
2017-01-22T03:05:08.446Z,-1.9
2017-01-22T03:06:18.761Z,-1.97
2017-01-22T03:07:29.012Z,-1.92
2017-01-22T03:08:39.338Z,-1.96
2017-01-22T03:09:49.646Z,-2.03
2017-01-22T03:10:59.886Z,-2
2017-01-22T03:12:09.798Z,-2.06
2017-01-22T03:13:20.098Z,-2.06
2017-01-22T03:14:29.129Z,-1.97
2017-01-22T03:15:39.011Z,-2.06
2017-01-22T03:16:48.876Z,-2.16
2017-01-22T03:17:59.132Z,-2.12
2017-01-22T03:19:09.054Z,-2.15
2017-01-22T03:20:18.962Z,-2.16
2017-01-22T03:21:29.262Z,-2.18
2017-01-22T03:22:39.502Z,-2.18
2017-01-22T03:23:50.013Z,-2.19
2017-01-22T03:25:00.292Z,-2.25
2017-01-22T03:26:10.199Z,-2.22
2017-01-22T03:27:20.460Z,-2.21
2017-01-22T03:28:30.704Z,-2.26
2017-01-22T03:29:40.542Z,-2.39
2017-01-22T03:30:50.812Z,-2.32
2017-01-22T03:32:01.068Z,-2.36
2017-01-22T03:33:10.926Z,-2.29
2017-01-22T03:34:20.768Z,-2.25
2017-01-22T03:35:30.619Z,-2.21
2017-01-22T03:36:40.442Z,-2.25
2017-01-22T03:37:50.352Z,-2.21
2017-01-22T03:39:00.245Z,-2.28
2017-01-22T03:40:10.498Z,-2.28
2017-01-22T03:41:20.763Z,-2.28
2017-01-22T03:42:31.001Z,-2.26
2017-01-22T03:43:41.268Z,-2.28
2017-01-22T03:44:51.104Z,-2.43
2017-01-22T03:46:01.359Z,-2.42
2017-01-22T03:47:11.231Z,-2.4
2017-01-22T03:48:21.498Z,-2.4
2017-01-22T03:49:31.820Z,-2.39
2017-01-22T03:50:41.785Z,-2.36
2017-01-22T03:51:52.088Z,-2.4
2017-01-22T03:53:02.441Z,-2.47
2017-01-22T03:54:11.948Z,-2.4
2017-01-22T03:55:21.374Z,-2.37
2017-01-22T03:56:31.271Z,-2.36
2017-01-22T03:57:41.558Z,-2.34
2017-01-22T03:58:51.826Z,-2.39
2017-01-22T04:00:01.674Z,-2.42
2017-01-22T04:01:12.029Z,-2.37
2017-01-22T04:02:22.356Z,-2.43
2017-01-22T04:03:32.211Z,-2.39
2017-01-22T04:04:42.469Z,-2.37
2017-01-22T04:05:52.759Z,-2.4
2017-01-22T04:07:03.010Z,-2.44
2017-01-22T04:08:13.344Z,-2.4
2017-01-22T04:09:23.632Z,-2.43
2017-01-22T04:10:33.472Z,-2.39
2017-01-22T04:11:43.320Z,-2.39
2017-01-22T04:12:53.559Z,-2.37
2017-01-22T04:14:03.847Z,-2.44
2017-01-22T04:15:13.780Z,-2.36
2017-01-22T04:16:24.020Z,-2.29
2017-01-22T04:17:33.887Z,-2.26
2017-01-22T04:18:43.754Z,-2.19
2017-01-22T04:19:54.045Z,-2.25
2017-01-22T04:21:04.388Z,-2.26
2017-01-22T04:22:14.261Z,-2.19
2017-01-22T04:23:24.107Z,-2.16
2017-01-22T04:24:33.946Z,-2.12
2017-01-22T04:25:44.216Z,-2.19
2017-01-22T04:26:54.486Z,-2.12
2017-01-22T04:28:04.393Z,-2.03
2017-01-22T04:29:14.243Z,-2.08
2017-01-22T04:30:24.513Z,-2.12
2017-01-22T04:31:34.825Z,-2.15
2017-01-22T04:32:45.078Z,-2.12
2017-01-22T04:33:54.992Z,-2.01
2017-01-22T04:35:05.366Z,-2.16
2017-01-22T04:36:15.254Z,-2.14
2017-01-22T04:37:25.570Z,-2.16
2017-01-22T04:38:35.410Z,-2.12
2017-01-22T04:39:45.743Z,-2.28
2017-01-22T04:40:56.006Z,-2.26
2017-01-22T04:42:06.290Z,-2.37
2017-01-22T04:43:16.147Z,-2.43
2017-01-22T04:44:25.602Z,-2.55
2017-01-22T04:45:35.856Z,-2.46
2017-01-22T04:46:46.098Z,-2.54
2017-01-22T04:47:56.394Z,-2.46
2017-01-22T04:49:06.716Z,-2.58
2017-01-22T04:50:17.276Z,-2.58
2017-01-22T04:51:27.673Z,-2.58
2017-01-22T04:52:37.997Z,-2.54
2017-01-22T04:53:48.265Z,-2.51
2017-01-22T04:54:58.517Z,-2.54
2017-01-22T04:56:08.790Z,-2.55
2017-01-22T04:57:19.051Z,-2.44
2017-01-22T04:58:29.308Z,-2.44
2017-01-22T04:59:39.260Z,-2.46
2017-01-22T05:00:49.590Z,-2.44
2017-01-22T05:01:59.891Z,-2.5
2017-01-22T05:03:10.296Z,-2.43
2017-01-22T05:04:20.549Z,-2.44
2017-01-22T05:05:30.844Z,-2.4
2017-01-22T05:06:40.846Z,-2.55
2017-01-22T05:07:51.122Z,-2.52
2017-01-22T05:09:01.349Z,-2.47
2017-01-22T05:10:11.638Z,-2.5
2017-01-22T05:11:21.564Z,-2.46
2017-01-22T05:12:31.863Z,-2.61
2017-01-22T05:13:41.730Z,-2.54
2017-01-22T05:14:52.008Z,-2.58
2017-01-22T05:16:02.333Z,-2.5
2017-01-22T05:17:12.601Z,-2.62
2017-01-22T05:18:22.598Z,-2.62
2017-01-22T05:19:32.848Z,-2.68
2017-01-22T05:20:43.264Z,-2.65
2017-01-22T05:21:53.144Z,-2.79
2017-01-22T05:23:03.385Z,-2.86
2017-01-22T05:24:13.258Z,-2.92
2017-01-22T05:25:23.543Z,-2.86
2017-01-22T05:26:33.028Z,-2.95
2017-01-22T05:27:43.270Z,-2.94
2017-01-22T05:28:53.598Z,-2.94
2017-01-22T05:30:03.951Z,-2.86
2017-01-22T05:31:13.850Z,-2.94
2017-01-22T05:32:24.086Z,-2.88
2017-01-22T05:33:34.373Z,-2.94
2017-01-22T05:34:44.223Z,-2.97
2017-01-22T05:35:54.538Z,-3.04
2017-01-22T05:37:04.895Z,-2.98
2017-01-22T05:38:15.197Z,-3.08
2017-01-22T05:39:25.618Z,-2.99
2017-01-22T05:40:35.935Z,-2.97
2017-01-22T05:41:46.269Z,-2.97
2017-01-22T05:42:56.557Z,-3.15
2017-01-22T05:44:06.825Z,-3.26
2017-01-22T05:45:17.085Z,-3.22
2017-01-22T05:46:27.346Z,-3.37
2017-01-22T05:47:37.608Z,-3.33
2017-01-22T05:48:47.543Z,-3.35
2017-01-22T05:49:57.818Z,-3.38
2017-01-22T05:51:08.126Z,-3.41
2017-01-22T05:52:18.401Z,-3.49
2017-01-22T05:53:28.240Z,-3.48
2017-01-22T05:54:38.501Z,-3.51
2017-01-22T05:55:48.808Z,-3.52
2017-01-22T05:56:59.067Z,-3.51
2017-01-22T05:58:09.006Z,-3.54
2017-01-22T05:59:19.249Z,-3.63
2017-01-22T06:00:29.786Z,-3.61
2017-01-22T06:01:39.648Z,-3.55
2017-01-22T06:02:49.941Z,-3.59
2017-01-22T06:03:59.427Z,-3.48
2017-01-22T06:05:09.677Z,-3.43
2017-01-22T06:06:19.580Z,-3.4
2017-01-22T06:07:29.873Z,-3.33
2017-01-22T06:08:39.355Z,-3.37
2017-01-22T06:09:49.627Z,-3.35
2017-01-22T06:10:59.933Z,-3.27
2017-01-22T06:12:10.292Z,-3.22
2017-01-22T06:13:20.555Z,-3.27
2017-01-22T06:14:30.826Z,-3.26
2017-01-22T06:15:41.102Z,-3.27
2017-01-22T06:16:51.352Z,-3.41
2017-01-22T06:18:01.673Z,-3.48
2017-01-22T06:19:11.951Z,-3.56
2017-01-22T06:20:21.840Z,-3.67
2017-01-22T06:21:31.700Z,-3.66
2017-01-22T06:22:42.115Z,-3.64
2017-01-22T06:23:52.427Z,-3.67
2017-01-22T06:25:02.291Z,-3.66
2017-01-22T06:26:12.668Z,-3.67
2017-01-22T06:27:22.578Z,-3.55
2017-01-22T06:28:32.460Z,-3.61
2017-01-22T06:29:42.744Z,-3.63
2017-01-22T06:30:53.057Z,-3.66
2017-01-22T06:32:03.320Z,-3.73
2017-01-22T06:33:13.590Z,-3.81
2017-01-22T06:34:23.887Z,-3.76
2017-01-22T06:35:34.385Z,-3.85
2017-01-22T06:36:44.069Z,-3.81
2017-01-22T06:37:53.929Z,-3.85
2017-01-22T06:39:04.208Z,-3.87
2017-01-22T06:40:14.479Z,-3.74
2017-01-22T06:41:24.750Z,-3.7
2017-01-22T06:42:35.059Z,-3.73
2017-01-22T06:43:45.318Z,-3.67
2017-01-22T06:44:55.608Z,-3.63
2017-01-22T06:46:05.875Z,-3.63
2017-01-22T06:47:15.724Z,-3.64
2017-01-22T06:48:26.012Z,-3.64
2017-01-22T06:49:35.912Z,-3.69
2017-01-22T06:50:45.801Z,-3.85
2017-01-22T06:51:56.103Z,-3.91
2017-01-22T06:53:06.094Z,-3.94
2017-01-22T06:54:15.943Z,-4.09
2017-01-22T06:55:26.238Z,-4.14
2017-01-22T06:56:36.125Z,-4.14
2017-01-22T06:57:45.990Z,-4.28
2017-01-22T06:58:56.262Z,-4.34
2017-01-22T07:00:06.153Z,-4.35
2017-01-22T07:01:16.052Z,-4.34
2017-01-22T07:02:26.004Z,-4.31
2017-01-22T07:03:36.356Z,-4.39
2017-01-22T07:04:46.219Z,-4.37
2017-01-22T07:05:56.483Z,-4.43
2017-01-22T07:07:06.374Z,-4.43
2017-01-22T07:08:16.704Z,-4.42
2017-01-22T07:09:26.972Z,-4.4
2017-01-22T07:10:37.416Z,-4.35
2017-01-22T07:11:47.267Z,-4.46
2017-01-22T07:12:57.597Z,-4.34
2017-01-22T07:14:07.973Z,-4.31
2017-01-22T07:15:18.441Z,-4.24
2017-01-22T07:16:28.736Z,-4.1
2017-01-22T07:17:38.992Z,-4.11
2017-01-22T07:18:49.295Z,-4.05
2017-01-22T07:19:59.171Z,-3.95
2017-01-22T07:21:09.045Z,-4.02
2017-01-22T07:22:19.359Z,-3.92
2017-01-22T07:23:29.246Z,-3.97
2017-01-22T07:24:39.515Z,-3.87
2017-01-22T07:25:49.408Z,-3.81
2017-01-22T07:26:59.358Z,-3.82
2017-01-22T07:28:09.676Z,-3.66
2017-01-22T07:29:20.026Z,-3.64
2017-01-22T07:30:30.341Z,-3.59
2017-01-22T07:31:40.624Z,-3.59
2017-01-22T07:32:50.921Z,-3.64
2017-01-22T07:34:01.190Z,-3.69
2017-01-22T07:35:11.485Z,-3.64
2017-01-22T07:36:21.747Z,-3.67
2017-01-22T07:37:31.924Z,-3.64
2017-01-22T07:38:42.192Z,-3.67
2017-01-22T07:39:52.510Z,-3.76
2017-01-22T07:41:02.856Z,-3.81
2017-01-22T07:42:13.231Z,-3.84
2017-01-22T07:43:23.515Z,-3.84
2017-01-22T07:44:33.437Z,-3.87
2017-01-22T07:45:43.305Z,-3.82
2017-01-22T07:46:53.583Z,-3.85
2017-01-22T07:48:03.868Z,-3.87
2017-01-22T07:49:14.206Z,-3.82
2017-01-22T07:50:24.455Z,-3.84
2017-01-22T07:51:34.719Z,-3.9
2017-01-22T07:52:45.057Z,-3.94
2017-01-22T07:53:55.322Z,-3.94
2017-01-22T07:55:05.163Z,-4.05
2017-01-22T07:56:15.613Z,-3.97
2017-01-22T07:57:25.950Z,-3.94
2017-01-22T07:58:36.228Z,-3.88
2017-01-22T07:59:46.097Z,-3.88
2017-01-22T08:00:55.949Z,-3.91
2017-01-22T08:02:05.409Z,-3.88
2017-01-22T08:03:15.709Z,-3.84
2017-01-22T08:04:25.984Z,-3.84
2017-01-22T08:05:36.318Z,-3.81
2017-01-22T08:06:46.205Z,-3.87
2017-01-22T08:07:56.180Z,-3.79
2017-01-22T08:09:06.524Z,-3.85
2017-01-22T08:10:16.806Z,-3.85
2017-01-22T08:11:26.930Z,-3.81
2017-01-22T08:12:37.219Z,-3.9
2017-01-22T08:13:47.524Z,-3.88
2017-01-22T08:14:57.811Z,-3.9
2017-01-22T08:16:08.128Z,-3.97
2017-01-22T08:17:17.993Z,-3.9
2017-01-22T08:18:27.876Z,-3.92
2017-01-22T08:19:37.379Z,-3.91
2017-01-22T08:20:47.247Z,-3.92
2017-01-22T08:21:57.537Z,-3.92
2017-01-22T08:23:07.871Z,-3.92
2017-01-22T08:24:18.137Z,-3.92
2017-01-22T08:25:28.413Z,-3.91
2017-01-22T08:26:38.849Z,-3.95
2017-01-22T08:27:48.702Z,-3.9
2017-01-22T08:28:59.022Z,-3.82
2017-01-22T08:30:08.977Z,-3.81
2017-01-22T08:31:19.246Z,-3.88
2017-01-22T08:32:29.115Z,-3.82
2017-01-22T08:33:38.996Z,-3.76
2017-01-22T08:34:49.289Z,-3.81
2017-01-22T08:35:59.546Z,-3.69
2017-01-22T08:37:09.868Z,-3.66
2017-01-22T08:38:20.171Z,-3.72
2017-01-22T08:39:30.092Z,-3.61
2017-01-22T08:40:40.410Z,-3.51
2017-01-22T08:41:50.320Z,-3.49
2017-01-22T08:43:00.627Z,-3.48
2017-01-22T08:44:10.480Z,-3.48
2017-01-22T08:45:20.826Z,-3.51
2017-01-22T08:46:31.090Z,-3.51
2017-01-22T08:47:41.351Z,-3.48
2017-01-22T08:48:51.621Z,-3.61
2017-01-22T08:50:01.918Z,-3.64
2017-01-22T08:51:11.811Z,-3.7
2017-01-22T08:52:21.753Z,-3.72
2017-01-22T08:53:31.678Z,-3.73
2017-01-22T08:54:41.994Z,-3.72
2017-01-22T08:55:52.256Z,-3.66
2017-01-22T08:57:02.117Z,-3.67
2017-01-22T08:58:12.376Z,-3.7
2017-01-22T08:59:22.655Z,-3.7
2017-01-22T09:00:32.528Z,-3.72
2017-01-22T09:01:42.515Z,-3.74
2017-01-22T09:02:52.405Z,-3.77
2017-01-22T09:04:02.667Z,-3.66
2017-01-22T09:05:13.001Z,-3.67
2017-01-22T09:06:23.297Z,-3.73
2017-01-22T09:07:33.228Z,-3.64
2017-01-22T09:08:43.538Z,-3.67
2017-01-22T09:09:53.399Z,-3.64
2017-01-22T09:11:03.988Z,-3.52
2017-01-22T09:12:13.991Z,-3.46
2017-01-22T09:13:23.912Z,-3.51
2017-01-22T09:14:33.897Z,-3.38
2017-01-22T09:15:44.194Z,-3.43
2017-01-22T09:16:54.526Z,-3.4
2017-01-22T09:18:04.383Z,-3.46
2017-01-22T09:19:14.299Z,-3.45
2017-01-22T09:20:24.188Z,-3.55
2017-01-22T09:21:34.472Z,-3.45
2017-01-22T09:22:44.804Z,-3.46
2017-01-22T09:23:55.072Z,-3.35
2017-01-22T09:25:04.934Z,-3.27
2017-01-22T09:26:14.825Z,-3.17
2017-01-22T09:27:25.102Z,-3.13
2017-01-22T09:28:35.405Z,-3.02
2017-01-22T09:29:45.741Z,-2.97
2017-01-22T09:30:56.111Z,-2.97
2017-01-22T09:32:06.546Z,-2.91
2017-01-22T09:33:16.931Z,-2.94
2017-01-22T09:34:27.381Z,-2.97
2017-01-22T09:35:37.670Z,-2.86
2017-01-22T09:36:48.016Z,-2.77
2017-01-22T09:37:58.313Z,-2.84
2017-01-22T09:39:08.624Z,-2.86
2017-01-22T09:40:18.934Z,-2.83
2017-01-22T09:41:29.237Z,-2.84
2017-01-22T09:42:39.139Z,-2.89
2017-01-22T09:43:49.402Z,-2.88
2017-01-22T09:44:59.984Z,-2.88
2017-01-22T09:46:09.487Z,-2.83
2017-01-22T09:47:19.808Z,-2.73
2017-01-22T09:48:30.096Z,-2.7
2017-01-22T09:49:40.009Z,-2.71
2017-01-22T09:50:49.479Z,-2.7
2017-01-22T09:51:59.430Z,-2.58
2017-01-22T09:53:09.704Z,-2.57
2017-01-22T09:54:19.971Z,-2.57
2017-01-22T09:55:29.448Z,-2.42
2017-01-22T09:56:39.726Z,-2.34
2017-01-22T09:57:50.024Z,-2.19
2017-01-22T09:59:00.544Z,-2.19
2017-01-22T10:00:10.460Z,-2.06
2017-01-22T10:01:20.757Z,-1.96
2017-01-22T10:02:30.675Z,-1.97
2017-01-22T10:03:41.036Z,-1.88
2017-01-22T10:04:50.525Z,-1.86
2017-01-22T10:06:00.427Z,-1.75
2017-01-22T10:07:10.698Z,-1.5
2017-01-22T10:08:20.604Z,-1.29
2017-01-22T10:09:30.099Z,-1.25
2017-01-22T10:10:40.375Z,-1.06
2017-01-22T10:11:50.672Z,-1.06
2017-01-22T10:13:00.980Z,-0.98
2017-01-22T10:14:11.399Z,-0.89
2017-01-22T10:15:20.892Z,-0.92
2017-01-22T10:16:31.231Z,-0.89
2017-01-22T10:17:41.561Z,-0.85
2017-01-22T10:18:51.843Z,-0.76
2017-01-22T10:20:02.194Z,-0.63
2017-01-22T10:21:12.510Z,-0.66
2017-01-22T10:22:22.390Z,-0.49
2017-01-22T10:23:32.259Z,-0.33
2017-01-22T10:24:42.569Z,-0.23
2017-01-22T10:25:52.887Z,0.05
2017-01-22T10:27:02.752Z,0.28
2017-01-22T10:28:12.729Z,0.54
2017-01-22T10:29:22.603Z,0.79
2017-01-22T10:30:32.520Z,1.1
2017-01-22T10:31:42.811Z,1.33
2017-01-22T10:32:53.117Z,1.66
2017-01-22T10:34:03.453Z,2.23
2017-01-22T10:35:13.727Z,2.55
2017-01-22T10:36:24.004Z,3.08
2017-01-22T10:37:34.368Z,3.44
2017-01-22T10:38:44.646Z,3.85
2017-01-22T10:39:54.648Z,4.11
2017-01-22T10:41:04.983Z,4.47
2017-01-22T10:42:14.500Z,4.89
2017-01-22T10:43:24.909Z,5.03
2017-01-22T10:44:35.216Z,5.28
2017-01-22T10:45:45.112Z,5.29
2017-01-22T10:46:55.389Z,5.51
2017-01-22T10:48:05.689Z,5.71
2017-01-22T10:49:16.032Z,5.83
2017-01-22T10:50:26.328Z,5.9
2017-01-22T10:51:36.239Z,6.08
2017-01-22T10:52:46.227Z,6.27
2017-01-22T10:53:56.108Z,6.44
2017-01-22T10:55:06.533Z,6.54
2017-01-22T10:56:16.907Z,6.64
2017-01-22T10:57:27.310Z,6.71
2017-01-22T10:58:37.628Z,6.62
2017-01-22T10:59:48.023Z,6.53
2017-01-22T11:00:57.901Z,6.54
2017-01-22T11:02:08.377Z,6.42
2017-01-22T11:03:17.989Z,6.26
2017-01-22T11:04:28.315Z,6.08
2017-01-22T11:05:37.493Z,5.84
2017-01-22T11:06:47.768Z,5.67
2017-01-22T11:07:58.063Z,5.43
2017-01-22T11:09:08.358Z,5.21
2017-01-22T11:10:18.658Z,4.93
2017-01-22T11:11:28.943Z,4.59
2017-01-22T11:12:39.267Z,4.46
2017-01-22T11:13:49.581Z,4.2
2017-01-22T11:14:59.926Z,4.18
2017-01-22T11:16:10.431Z,3.93
2017-01-22T11:17:20.848Z,3.72
2017-01-22T11:18:31.139Z,3.42
2017-01-22T11:19:41.730Z,3.19
2017-01-22T11:20:52.116Z,2.97
2017-01-22T11:22:02.465Z,2.96
2017-01-22T11:23:12.364Z,2.88
2017-01-22T11:24:22.276Z,2.84
2017-01-22T11:25:32.179Z,2.85
2017-01-22T11:26:41.715Z,3.11
2017-01-22T11:27:52.022Z,3.29
2017-01-22T11:29:02.319Z,3.43
2017-01-22T11:30:11.820Z,3.4
2017-01-22T11:31:21.084Z,3.62
2017-01-22T11:32:31.424Z,3.77
2017-01-22T11:33:41.299Z,3.9
2017-01-22T11:34:51.587Z,4.09
2017-01-22T11:36:01.574Z,4.33
2017-01-22T11:37:11.859Z,4.47
2017-01-22T11:38:22.196Z,4.6
2017-01-22T11:39:32.487Z,4.78
2017-01-22T11:40:42.417Z,4.99
2017-01-22T11:41:52.739Z,5.14
2017-01-22T11:43:02.702Z,5.22
2017-01-22T11:44:12.609Z,5.26
2017-01-22T11:45:22.918Z,5.29
2017-01-22T11:46:33.247Z,5.11
2017-01-22T11:47:43.558Z,4.93
2017-01-22T11:48:53.836Z,4.68
2017-01-22T11:50:04.129Z,4.7
2017-01-22T11:51:14.446Z,4.73
2017-01-22T11:52:24.780Z,4.57
2017-01-22T11:53:35.091Z,4.52
2017-01-22T11:54:45.533Z,4.43
2017-01-22T11:55:55.931Z,4.23
2017-01-22T11:57:05.884Z,4.12
2017-01-22T11:58:15.950Z,4.03
2017-01-22T11:59:26.388Z,4.03
2017-01-22T12:00:36.330Z,4.11
2017-01-22T12:01:46.248Z,4.09
2017-01-22T12:02:55.816Z,4
2017-01-22T12:04:05.704Z,4.08
2017-01-22T12:05:15.233Z,4.23
2017-01-22T12:06:25.116Z,4.34
2017-01-22T12:07:34.609Z,4.43
2017-01-22T12:08:44.575Z,4.67
2017-01-22T12:09:54.470Z,4.93
2017-01-22T12:11:04.360Z,5.11
2017-01-22T12:12:14.334Z,5.31
2017-01-22T12:13:24.240Z,5.53
2017-01-22T12:14:33.738Z,5.67
2017-01-22T12:15:43.812Z,5.8
2017-01-22T12:16:54.221Z,5.93
2017-01-22T12:18:04.571Z,5.94
2017-01-22T12:19:14.480Z,5.99
2017-01-22T12:20:24.825Z,6.06
2017-01-22T12:21:35.194Z,6.16
2017-01-22T12:22:45.108Z,6.19
2017-01-22T12:23:55.013Z,6.26
2017-01-22T12:25:05.460Z,6.28
2017-01-22T12:26:15.934Z,6.17
2017-01-22T12:27:25.845Z,6.06
2017-01-22T12:28:35.411Z,6.03
2017-01-22T12:29:45.376Z,5.91
2017-01-22T12:30:55.301Z,5.93
2017-01-22T12:32:05.229Z,5.74
2017-01-22T12:33:15.169Z,5.86
2017-01-22T12:34:25.553Z,5.74
2017-01-22T12:35:36.150Z,5.71
2017-01-22T12:36:46.485Z,5.5
2017-01-22T12:37:56.433Z,5.31
2017-01-22T12:39:06.803Z,5.18
2017-01-22T12:40:17.303Z,4.95
2017-01-22T12:41:27.603Z,4.77
2017-01-22T12:42:37.519Z,4.37
2017-01-22T12:43:47.876Z,4.22
2017-01-22T12:44:57.771Z,4.09
2017-01-22T12:46:07.821Z,4.05
2017-01-22T12:47:18.146Z,4.15
2017-01-22T12:48:28.450Z,4.18
2017-01-22T12:49:38.790Z,4.2
2017-01-22T12:50:48.776Z,4.2
2017-01-22T12:51:59.113Z,4.19
2017-01-22T12:53:08.611Z,4.31
2017-01-22T12:54:18.511Z,4.33
2017-01-22T12:55:28.850Z,4.43
2017-01-22T12:56:39.256Z,4.52
2017-01-22T12:57:49.556Z,4.56
2017-01-22T12:58:59.487Z,4.41
2017-01-22T13:00:09.218Z,4.55
2017-01-22T13:01:19.138Z,4.57
2017-01-22T13:02:29.045Z,4.47
2017-01-22T13:03:39.422Z,4.38
2017-01-22T13:04:50.728Z,4.23
2017-01-22T13:06:01.041Z,4.16
2017-01-22T13:07:12.342Z,3.91
2017-01-22T13:08:22.821Z,3.75
2017-01-22T13:09:32.770Z,3.46
2017-01-22T13:10:43.325Z,3.32
2017-01-22T13:11:53.619Z,3.15
2017-01-22T13:13:03.967Z,2.88
2017-01-22T13:14:13.054Z,2.79
2017-01-22T13:15:23.431Z,2.53
2017-01-22T13:16:33.722Z,2.45
2017-01-22T13:17:44.016Z,2.3
2017-01-22T13:18:53.946Z,2.23
2017-01-22T13:20:04.282Z,2.19
2017-01-22T13:21:14.590Z,2.09
2017-01-22T13:22:24.513Z,1.98
2017-01-22T13:23:34.399Z,1.85
2017-01-22T13:24:44.754Z,1.84
2017-01-22T13:25:55.083Z,1.74
2017-01-22T13:27:05.433Z,1.69
2017-01-22T13:28:15.313Z,1.51
2017-01-22T13:29:25.708Z,1.42
2017-01-22T13:30:36.081Z,1.51
2017-01-22T13:31:47.138Z,1.46
2017-01-22T13:32:58.313Z,1.3
2017-01-22T13:34:08.252Z,1.33
2017-01-22T13:35:18.127Z,1.25
2017-01-22T13:36:28.424Z,1.22
2017-01-22T13:37:38.360Z,0.96
2017-01-22T13:38:48.636Z,1.04
2017-01-22T13:39:59.024Z,0.96
2017-01-22T13:41:08.952Z,0.84
2017-01-22T13:42:19.059Z,0.86
2017-01-22T13:43:28.596Z,0.81
2017-01-22T13:44:39.031Z,0.81
2017-01-22T13:45:49.424Z,0.81
2017-01-22T13:46:59.799Z,0.81
2017-01-22T13:48:10.273Z,0.84
2017-01-22T13:49:20.646Z,0.86
2017-01-22T13:50:30.953Z,0.9
2017-01-22T13:51:41.252Z,0.9
2017-01-22T13:52:51.618Z,0.88
2017-01-22T13:54:02.013Z,0.81
2017-01-22T13:55:12.327Z,0.81
2017-01-22T13:56:22.257Z,0.84
2017-01-22T13:57:32.213Z,0.82
2017-01-22T13:58:41.312Z,0.78
2017-01-22T13:59:52.113Z,0.85
2017-01-22T14:01:04.015Z,0.84
2017-01-22T14:02:13.121Z,0.81
2017-01-22T14:03:23.502Z,0.75
2017-01-22T14:04:33.838Z,0.84
2017-01-22T14:05:44.151Z,0.84
2017-01-22T14:06:54.443Z,0.84
2017-01-22T14:08:04.821Z,0.72
2017-01-22T14:09:14.737Z,0.79
2017-01-22T14:10:25.103Z,0.76
2017-01-22T14:11:34.975Z,0.74
2017-01-22T14:12:45.410Z,0.67
2017-01-22T14:13:54.941Z,0.71
2017-01-22T14:15:05.275Z,0.6
2017-01-22T14:16:15.576Z,0.6
2017-01-22T14:17:26.043Z,0.42
2017-01-22T14:18:35.575Z,0.53
2017-01-22T14:19:45.865Z,0.35
2017-01-22T14:20:56.312Z,0.38
2017-01-22T14:22:06.317Z,0.25
2017-01-22T14:23:16.621Z,0.3
2017-01-22T14:24:26.944Z,0.21
2017-01-22T14:25:37.272Z,0.14
2017-01-22T14:26:47.225Z,0.22
2017-01-22T14:27:57.819Z,0.2
2017-01-22T14:29:08.152Z,0.05
2017-01-22T14:30:18.688Z,0.06
2017-01-22T14:31:28.985Z,0.01
2017-01-22T14:32:38.899Z,0.09
2017-01-22T14:33:49.215Z,0.05
2017-01-22T14:35:00.520Z,0.03
2017-01-22T14:36:10.430Z,0.03
2017-01-22T14:37:20.761Z,0.08
2017-01-22T14:38:30.648Z,0.05
2017-01-22T14:39:40.962Z,0.09
2017-01-22T14:40:51.257Z,0.01
2017-01-22T14:42:01.655Z,-0.02
2017-01-22T14:43:11.574Z,-0.01
2017-01-22T14:44:21.847Z,-0.1
2017-01-22T14:45:31.741Z,-0.09
2017-01-22T14:46:42.042Z,-0.13
2017-01-22T14:47:52.512Z,-0.22
2017-01-22T14:49:02.784Z,-0.34
2017-01-22T14:50:13.116Z,-0.38
2017-01-22T14:51:23.499Z,-0.48
2017-01-22T14:52:33.802Z,-0.55
2017-01-22T14:53:43.788Z,-0.63
2017-01-22T14:54:53.808Z,-0.7
2017-01-22T14:56:03.319Z,-0.76
2017-01-22T14:57:13.348Z,-0.91
2017-01-22T14:58:23.625Z,-0.98
2017-01-22T14:59:33.638Z,-0.92
2017-01-22T15:00:43.676Z,-0.88
2017-01-22T15:01:53.632Z,-0.98
2017-01-22T15:03:03.574Z,-1.05
2017-01-22T15:04:13.164Z,-0.98
2017-01-22T15:05:23.482Z,-0.98
2017-01-22T15:06:33.857Z,-1.09
2017-01-22T15:07:43.773Z,-1.23
2017-01-22T15:08:54.192Z,-1.42
2017-01-22T15:10:04.506Z,-1.4
2017-01-22T15:11:14.028Z,-1.49
2017-01-22T15:12:24.520Z,-1.61
2017-01-22T15:13:34.856Z,-1.72
2017-01-22T15:14:45.243Z,-1.83